createdAt,value
2023-05-21T00:03:14.598Z,14.70
2023-05-21T00:07:16.861Z,14.80
2023-05-21T00:11:18.888Z,14.70
2023-05-21T00:15:20.779Z,14.90
2023-05-21T00:19:22.797Z,15.30
2023-05-21T00:23:26.353Z,15.10
2023-05-21T00:27:28.418Z,15.40
2023-05-21T00:31:32.307Z,15.40
2023-05-21T00:35:34.773Z,15.30
2023-05-21T00:39:37.132Z,15.20
2023-05-21T00:43:42.151Z,15.20
2023-05-21T00:47:45.134Z,14.80
2023-05-21T00:51:48.258Z,15.00
2023-05-21T00:55:51.217Z,15.10
2023-05-21T00:59:54.320Z,15.10
2023-05-21T01:03:57.926Z,15.10
2023-05-21T01:08:00.624Z,15.00
2023-05-21T01:12:04.184Z,15.00
2023-05-21T01:16:08.744Z,14.90
2023-05-21T01:20:11.739Z,14.90
2023-05-21T01:24:15.598Z,14.70
2023-05-21T01:28:17.736Z,14.70
2023-05-21T01:32:27.829Z,14.40
2023-05-21T01:36:38.109Z,14.40
2023-05-21T01:40:49.809Z,14.40
2023-05-21T01:44:55.027Z,14.50
2023-05-21T01:48:57.542Z,14.50
2023-05-21T01:53:01.184Z,14.60
2023-05-21T01:57:04.147Z,14.50
2023-05-21T02:01:06.220Z,14.60
2023-05-21T02:05:08.752Z,14.50
2023-05-21T02:09:10.835Z,14.50
2023-05-21T02:13:12.836Z,14.30
2023-05-21T02:17:15.061Z,13.90
2023-05-21T02:21:17.492Z,13.70
2023-05-21T02:25:22.583Z,13.90
2023-05-21T02:29:24.662Z,14.00
2023-05-21T02:33:26.902Z,13.60
2023-05-21T02:37:29.418Z,13.70
2023-05-21T02:41:31.830Z,13.80
2023-05-21T02:45:33.991Z,13.70
2023-05-21T02:49:36.564Z,13.70
2023-05-21T02:53:39.172Z,13.80
2023-05-21T02:57:41.420Z,13.80
2023-05-21T03:01:45.205Z,13.70
2023-05-21T03:05:48.316Z,13.40
2023-05-21T03:09:50.599Z,13.30
2023-05-21T03:13:52.729Z,13.40
2023-05-21T03:17:55.545Z,13.30
2023-05-21T03:21:58.507Z,13.30
2023-05-21T03:26:02.293Z,13.40
2023-05-21T03:30:06.705Z,13.50
2023-05-21T03:34:16.597Z,13.50
2023-05-21T03:38:21.985Z,13.40
2023-05-21T03:42:24.158Z,13.30
2023-05-21T03:46:29.237Z,13.40
2023-05-21T03:50:31.392Z,13.20
2023-05-21T03:54:33.660Z,13.10
2023-05-21T03:58:40.036Z,13.20
2023-05-21T04:02:42.266Z,13.10
2023-05-21T04:06:44.855Z,13.20
2023-05-21T04:10:48.285Z,13.10
2023-05-21T04:14:51.546Z,13.20
2023-05-21T04:18:55.529Z,13.20
2023-05-21T04:22:59.226Z,13.20
2023-05-21T04:27:01.608Z,13.30
2023-05-21T04:31:05.886Z,13.20
2023-05-21T04:35:08.450Z,13.20
2023-05-21T04:39:10.397Z,13.20
2023-05-21T04:43:12.801Z,13.20
2023-05-21T04:47:15.086Z,13.40
2023-05-21T04:51:17.330Z,13.20
2023-05-21T04:55:19.448Z,13.40
2023-05-21T04:59:21.723Z,13.40
2023-05-21T05:03:23.935Z,13.50
2023-05-21T05:07:26.228Z,13.60
2023-05-21T05:11:28.264Z,13.80
2023-05-21T05:15:31.134Z,13.80
2023-05-21T05:19:35.098Z,14.10
2023-05-21T05:23:37.319Z,14.10
2023-05-21T05:27:39.416Z,14.30
2023-05-21T05:31:41.670Z,14.40
2023-05-21T05:35:44.487Z,14.50
2023-05-21T05:39:46.622Z,14.70
2023-05-21T05:43:49.593Z,15.00
2023-05-21T05:47:52.893Z,15.20
2023-05-21T05:51:56.670Z,15.30
2023-05-21T05:55:59.865Z,15.50
2023-05-21T06:00:02.613Z,15.70
2023-05-21T06:04:14.128Z,15.80
2023-05-21T06:08:17.167Z,15.70
2023-05-21T06:12:21.193Z,15.30
2023-05-21T06:16:23.283Z,14.80
2023-05-21T06:20:25.700Z,15.20
2023-05-21T06:24:27.932Z,15.50
2023-05-21T06:28:30.094Z,15.70
2023-05-21T06:32:34.109Z,15.50
2023-05-21T06:36:36.596Z,15.80
2023-05-21T06:40:38.557Z,15.80
2023-05-21T06:44:41.002Z,15.50
2023-05-21T06:48:49.162Z,15.60
2023-05-21T06:52:51.126Z,15.90
2023-05-21T06:56:53.329Z,15.90
2023-05-21T07:00:55.452Z,16.10
2023-05-21T07:04:57.638Z,15.50
2023-05-21T07:09:00.684Z,15.00
2023-05-21T07:13:02.788Z,15.60
2023-05-21T07:17:05.346Z,16.40
2023-05-21T07:21:08.402Z,15.40
2023-05-21T07:25:11.617Z,16.40
2023-05-21T07:29:14.025Z,16.80
2023-05-21T07:33:16.432Z,16.80
2023-05-21T07:37:20.756Z,17.10
2023-05-21T07:41:22.998Z,17.50
2023-05-21T07:45:26.060Z,17.30
2023-05-21T07:49:28.960Z,16.70
2023-05-21T07:53:32.429Z,16.30
2023-05-21T07:57:37.764Z,17.10
2023-05-21T08:01:45.129Z,16.40
2023-05-21T08:05:50.952Z,16.90
2023-05-21T08:09:54.129Z,17.50
2023-05-21T08:13:56.498Z,17.10
2023-05-21T08:17:59.393Z,17.70
2023-05-21T08:22:02.357Z,18.50
2023-05-21T08:26:07.169Z,18.40
2023-05-21T08:30:13.528Z,18.10
2023-05-21T08:34:16.504Z,17.60
2023-05-21T08:38:26.119Z,18.30
2023-05-21T08:42:49.210Z,17.90
2023-05-21T08:47:02.846Z,17.30
2023-05-21T08:51:05.374Z,17.70
2023-05-21T08:55:12.696Z,18.30
2023-05-21T08:59:18.258Z,16.40
2023-05-21T09:03:22.564Z,16.60
2023-05-21T09:07:29.123Z,17.60
2023-05-21T09:11:47.544Z,17.60
2023-05-21T09:15:51.487Z,18.30
2023-05-21T09:20:15.261Z,18.40
2023-05-21T09:24:24.076Z,18.00
2023-05-21T09:28:27.046Z,17.40
2023-05-21T09:32:29.082Z,17.80
2023-05-21T09:36:31.296Z,17.90
2023-05-21T09:40:35.620Z,18.10
2023-05-21T09:44:37.810Z,17.40
2023-05-21T09:48:42.011Z,17.60
2023-05-21T09:52:53.196Z,18.20
2023-05-21T09:56:55.454Z,18.60
2023-05-21T10:00:57.289Z,18.60
2023-05-21T10:05:00.575Z,18.90
2023-05-21T10:09:07.389Z,19.10
2023-05-21T10:13:12.543Z,19.20
2023-05-21T10:17:14.942Z,18.90
2023-05-21T10:21:17.332Z,19.20
2023-05-21T10:25:20.377Z,19.60
2023-05-21T10:29:23.561Z,19.40
2023-05-21T10:33:27.848Z,19.70
2023-05-21T10:37:30.153Z,19.50
2023-05-21T10:41:40.859Z,19.00
2023-05-21T10:46:03.401Z,19.30
2023-05-21T10:50:27.235Z,19.50
2023-05-21T10:54:49.806Z,19.10
2023-05-21T10:59:30.246Z,19.50
2023-05-21T11:03:36.518Z,20.40
2023-05-21T11:07:53.977Z,20.70
2023-05-21T11:12:00.833Z,20.40
2023-05-21T11:16:06.706Z,20.30
2023-05-21T11:20:12.061Z,20.50
2023-05-21T11:24:20.178Z,20.60
2023-05-21T11:28:34.181Z,20.70
2023-05-21T11:32:40.978Z,20.20
2023-05-21T11:36:50.150Z,20.60
2023-05-21T11:40:56.468Z,20.60
2023-05-21T11:44:59.364Z,20.20
2023-05-21T11:49:02.834Z,20.80
2023-05-21T11:53:05.025Z,20.20
2023-05-21T11:57:08.329Z,20.90
2023-05-21T12:01:22.466Z,21.20
2023-05-21T12:05:24.398Z,21.50
2023-05-21T12:09:26.328Z,21.20
2023-05-21T12:13:28.827Z,21.00
2023-05-21T12:17:31.729Z,21.60
2023-05-21T12:21:35.545Z,21.50
2023-05-21T12:25:37.492Z,20.90
2023-05-21T12:29:42.448Z,19.90
2023-05-21T12:33:53.868Z,20.50
2023-05-21T12:37:55.942Z,21.50
2023-05-21T12:41:57.960Z,21.20
2023-05-21T12:46:00.095Z,21.50
2023-05-21T12:50:04.060Z,21.50
2023-05-21T12:54:13.134Z,21.50
2023-05-21T12:58:15.373Z,21.60
2023-05-21T13:02:21.545Z,21.90
2023-05-21T13:06:23.501Z,21.80
2023-05-21T13:10:25.493Z,21.70
2023-05-21T13:14:27.541Z,21.30
2023-05-21T13:18:29.617Z,21.70
2023-05-21T13:22:31.543Z,21.90
2023-05-21T13:26:33.889Z,21.50
2023-05-21T13:30:37.005Z,22.10
2023-05-21T13:34:39.354Z,22.00
2023-05-21T13:38:41.448Z,21.90
2023-05-21T13:42:45.533Z,21.90
2023-05-21T13:46:48.078Z,21.70
2023-05-21T13:50:50.288Z,22.20
2023-05-21T13:54:52.453Z,22.30
2023-05-21T13:58:54.369Z,22.00
2023-05-21T14:02:56.471Z,22.50
2023-05-21T14:06:58.355Z,21.30
2023-05-21T14:11:03.316Z,21.40
2023-05-21T14:15:07.691Z,22.20
2023-05-21T14:19:10.016Z,22.50
2023-05-21T14:23:12.104Z,22.50
2023-05-21T14:27:15.518Z,22.00
2023-05-21T14:31:17.658Z,22.10
2023-05-21T14:35:19.715Z,21.60
2023-05-21T14:39:22.368Z,22.20
2023-05-21T14:43:24.413Z,22.60
2023-05-21T14:47:26.564Z,22.70
2023-05-21T14:51:28.480Z,22.00
2023-05-21T14:55:30.868Z,22.10
2023-05-21T14:59:33.089Z,21.70
2023-05-21T15:03:35.225Z,22.50
2023-05-21T15:07:37.258Z,22.50
2023-05-21T15:11:40.252Z,22.60
2023-05-21T15:15:42.415Z,23.10
2023-05-21T15:19:44.506Z,22.20
2023-05-21T15:23:46.475Z,23.00
2023-05-21T15:27:50.406Z,23.10
2023-05-21T15:31:52.560Z,23.10
2023-05-21T15:35:54.607Z,23.20
2023-05-21T15:39:56.857Z,22.80
2023-05-21T15:43:58.836Z,23.10
2023-05-21T15:48:01.116Z,23.40
2023-05-21T15:52:03.309Z,23.60
2023-05-21T15:56:05.797Z,23.70
2023-05-21T16:00:09.380Z,23.00
2023-05-21T16:04:11.535Z,23.20
2023-05-21T16:08:13.620Z,22.90
2023-05-21T16:12:17.008Z,23.10
2023-05-21T16:16:19.976Z,22.90
2023-05-21T16:20:22.674Z,23.40
2023-05-21T16:24:24.704Z,23.80
2023-05-21T16:28:27.349Z,23.30
2023-05-21T16:32:29.477Z,23.40
2023-05-21T16:36:31.438Z,23.50
2023-05-21T16:40:33.878Z,22.70
2023-05-21T16:44:37.853Z,23.00
2023-05-21T16:48:41.801Z,23.40
2023-05-21T16:52:43.785Z,23.10
2023-05-21T16:56:45.845Z,23.30
2023-05-21T17:00:48.001Z,23.50
2023-05-21T17:04:50.907Z,23.40
2023-05-21T17:08:52.973Z,23.10
2023-05-21T17:12:54.999Z,23.00
2023-05-21T17:16:57.090Z,23.10
2023-05-21T17:20:59.153Z,23.00
2023-05-21T17:25:01.148Z,22.20
2023-05-21T17:29:03.179Z,21.60
2023-05-21T17:33:06.633Z,21.00
2023-05-21T17:37:08.686Z,21.90
2023-05-21T17:41:10.801Z,21.70
2023-05-21T17:45:12.761Z,22.10
2023-05-21T17:49:14.876Z,22.00
2023-05-21T17:53:18.100Z,21.70
2023-05-21T17:57:20.328Z,22.10
2023-05-21T18:01:22.406Z,22.30
2023-05-21T18:05:24.755Z,22.30
2023-05-21T18:09:26.776Z,22.20
2023-05-21T18:13:32.148Z,21.90
2023-05-21T18:17:34.215Z,21.90
2023-05-21T18:21:37.198Z,21.80
2023-05-21T18:25:39.309Z,21.80
2023-05-21T18:29:41.453Z,21.30
2023-05-21T18:33:43.612Z,21.00
2023-05-21T18:37:46.845Z,21.10
2023-05-21T18:41:51.593Z,21.30
2023-05-21T18:45:54.086Z,21.10
2023-05-21T18:49:56.410Z,20.80
2023-05-21T18:53:58.869Z,20.70
2023-05-21T18:58:01.266Z,20.70
2023-05-21T19:02:04.400Z,20.70
2023-05-21T19:06:06.633Z,20.40
2023-05-21T19:10:10.653Z,20.30
2023-05-21T19:14:12.819Z,20.40
2023-05-21T19:18:15.223Z,20.20
2023-05-21T19:22:18.188Z,19.90
2023-05-21T19:26:21.493Z,19.80
2023-05-21T19:30:24.113Z,19.60
2023-05-21T19:34:27.021Z,19.50
2023-05-21T19:38:29.155Z,19.40
2023-05-21T19:42:31.177Z,19.30
2023-05-21T19:46:33.418Z,19.20
2023-05-21T19:50:36.261Z,19.10
2023-05-21T19:54:38.358Z,19.00
2023-05-21T19:58:40.900Z,18.60
2023-05-21T20:02:43.037Z,18.10
2023-05-21T20:06:45.163Z,18.00
2023-05-21T20:10:48.859Z,17.80
2023-05-21T20:14:54.257Z,17.90
2023-05-21T20:18:57.985Z,17.50
2023-05-21T20:23:03.189Z,17.50
2023-05-21T20:27:05.513Z,17.50
2023-05-21T20:31:07.561Z,17.40
2023-05-21T20:35:09.806Z,17.10
2023-05-21T20:39:12.114Z,17.20
2023-05-21T20:43:14.934Z,17.20
2023-05-21T20:47:17.063Z,17.20
2023-05-21T20:51:19.101Z,17.40
2023-05-21T20:55:21.215Z,17.30
2023-05-21T20:59:23.322Z,17.20
2023-05-21T21:03:25.344Z,17.20
2023-05-21T21:07:30.051Z,17.10
2023-05-21T21:11:31.949Z,17.10
2023-05-21T21:15:34.346Z,17.20
2023-05-21T21:19:36.400Z,17.00
2023-05-21T21:23:38.581Z,17.00
2023-05-21T21:27:40.732Z,16.90
2023-05-21T21:31:42.897Z,16.90
2023-05-21T21:35:45.153Z,16.70
2023-05-21T21:39:47.167Z,16.60
2023-05-21T21:43:49.409Z,16.40
2023-05-21T21:47:51.357Z,16.30
2023-05-21T21:51:57.633Z,16.40
2023-05-21T21:55:59.689Z,16.20
2023-05-21T22:00:01.845Z,16.30
2023-05-21T22:04:06.627Z,16.10
2023-05-21T22:08:08.681Z,16.20
2023-05-21T22:12:11.473Z,16.10
2023-05-21T22:16:13.599Z,16.20
2023-05-21T22:20:17.629Z,15.90
2023-05-21T22:24:31.352Z,14.70
2023-05-21T22:28:34.309Z,15.00
2023-05-21T22:32:36.380Z,15.20
2023-05-21T22:36:38.835Z,15.50
2023-05-21T22:40:41.108Z,15.20
2023-05-21T22:44:43.305Z,15.10
2023-05-21T22:48:46.072Z,15.20
2023-05-21T22:52:48.114Z,15.20
2023-05-21T22:56:50.798Z,15.30
2023-05-21T23:00:52.863Z,15.40
2023-05-21T23:04:54.768Z,15.20
2023-05-21T23:08:56.750Z,14.90
2023-05-21T23:12:58.768Z,14.60
2023-05-21T23:17:02.266Z,14.60
2023-05-21T23:21:04.752Z,14.80
2023-05-21T23:25:07.420Z,14.40
2023-05-21T23:29:09.356Z,14.30
2023-05-21T23:33:11.346Z,14.50
2023-05-21T23:37:13.261Z,14.60
2023-05-21T23:41:15.381Z,14.80
2023-05-21T23:45:17.985Z,15.00
2023-05-21T23:49:19.992Z,14.80
2023-05-21T23:53:21.915Z,14.70
2023-05-21T23:57:23.981Z,14.60
